createdAt,value
2018-09-18T00:01:08.388Z,100298.14
2018-09-18T00:03:37.307Z,100295.77
2018-09-18T00:06:06.314Z,100298.20
2018-09-18T00:08:35.282Z,100294.98
2018-09-18T00:11:04.228Z,100293.20
2018-09-18T00:13:33.134Z,100287.73
2018-09-18T00:16:02.138Z,100287.23
2018-09-18T00:18:31.121Z,100292.48
2018-09-18T00:21:00.072Z,100290.83
2018-09-18T00:23:29.031Z,100288.69
2018-09-18T00:25:57.969Z,100290.11
2018-09-18T00:28:26.903Z,100286.78
2018-09-18T00:30:55.783Z,100277.33
2018-09-18T00:33:24.696Z,100282.56
2018-09-18T00:35:53.637Z,100278.88
2018-09-18T00:38:22.729Z,100277.76
2018-09-18T00:40:51.649Z,100271.56
2018-09-18T00:43:20.623Z,100271.00
2018-09-18T00:45:49.584Z,100269.16
2018-09-18T00:48:18.513Z,100269.72
2018-09-18T00:50:47.413Z,100270.51
2018-09-18T00:53:16.332Z,100271.63
2018-09-18T00:55:45.275Z,100273.28
2018-09-18T00:58:14.272Z,100271.50
2018-09-18T01:00:43.192Z,100275.68
2018-09-18T01:03:12.132Z,100271.40
2018-09-18T01:05:41.052Z,100269.48
2018-09-18T01:08:10.030Z,100268.44
2018-09-18T01:10:38.949Z,100266.45
2018-09-18T01:13:07.875Z,100265.37
2018-09-18T01:15:36.828Z,100257.56
2018-09-18T01:18:05.808Z,100256.14
2018-09-18T01:20:34.704Z,100258.05
2018-09-18T01:23:03.664Z,100261.81
2018-09-18T01:25:32.593Z,100261.88
2018-09-18T01:28:01.511Z,100260.83
2018-09-18T01:30:30.442Z,100259.70
2018-09-18T01:32:59.364Z,100256.11
2018-09-18T01:35:28.254Z,100258.81
2018-09-18T01:37:57.244Z,100249.78
2018-09-18T01:40:26.273Z,100258.42
2018-09-18T01:42:55.182Z,100251.50
2018-09-18T01:45:30.132Z,100251.50
2018-09-18T01:47:59.061Z,100254.33
2018-09-18T01:50:27.968Z,100255.32
2018-09-18T01:52:56.907Z,100250.22
2018-09-18T01:55:25.925Z,100248.50
2018-09-18T01:57:54.824Z,100246.91
2018-09-18T02:00:23.786Z,100241.81
2018-09-18T02:02:52.754Z,100240.20
2018-09-18T02:05:21.753Z,100246.52
2018-09-18T02:07:50.659Z,100244.94
2018-09-18T02:10:19.607Z,100241.45
2018-09-18T02:12:48.532Z,100243.65
2018-09-18T02:15:17.486Z,100241.94
2018-09-18T02:17:46.530Z,100245.73
2018-09-18T02:20:15.439Z,100243.52
2018-09-18T02:22:44.368Z,100239.10
2018-09-18T02:25:13.376Z,100241.08
2018-09-18T02:27:42.364Z,100232.48
2018-09-18T02:30:11.270Z,100234.13
2018-09-18T02:32:40.306Z,100239.30
2018-09-18T02:35:09.246Z,100239.46
2018-09-18T02:37:38.190Z,100241.14
2018-09-18T02:40:07.325Z,100240.52
2018-09-18T02:42:36.252Z,100240.81
2018-09-18T02:45:05.168Z,100244.31
2018-09-18T02:47:34.075Z,100241.85
2018-09-18T02:50:02.996Z,100241.30
2018-09-18T02:52:31.908Z,100233.20
2018-09-18T02:55:00.845Z,100234.14
2018-09-18T02:57:29.829Z,100238.36
2018-09-18T02:59:58.753Z,100238.72
2018-09-18T03:02:27.661Z,100239.48
2018-09-18T03:04:56.592Z,100244.37
2018-09-18T03:07:25.517Z,100238.92
2018-09-18T03:09:54.844Z,100243.27
2018-09-18T03:12:23.741Z,100235.04
2018-09-18T03:14:52.675Z,100234.25
2018-09-18T03:17:21.674Z,100235.42
2018-09-18T03:19:50.687Z,100236.87
2018-09-18T03:22:19.611Z,100236.28
2018-09-18T03:24:48.518Z,100238.11
2018-09-18T03:27:17.554Z,100237.46
2018-09-18T03:29:46.456Z,100234.77
2018-09-18T03:32:15.389Z,100231.54
2018-09-18T03:34:44.330Z,100235.27
2018-09-18T03:37:13.290Z,100231.48
2018-09-18T03:39:42.225Z,100234.83
2018-09-18T03:42:11.240Z,100234.94
2018-09-18T03:44:40.154Z,100232.01
2018-09-18T03:47:09.089Z,100228.02
2018-09-18T03:49:38.044Z,100228.84
2018-09-18T03:52:07.073Z,100225.81
2018-09-18T03:54:36.022Z,100229.63
2018-09-18T03:57:04.953Z,100224.30
2018-09-18T03:59:33.989Z,100227.34
2018-09-18T04:02:02.912Z,100224.03
2018-09-18T04:04:31.880Z,100228.20
2018-09-18T04:07:00.893Z,100227.84
2018-09-18T04:09:29.873Z,100224.09
2018-09-18T04:11:58.813Z,100222.86
2018-09-18T04:14:27.722Z,100222.51
2018-09-18T04:16:56.631Z,100233.95
2018-09-18T04:19:25.602Z,100232.86
2018-09-18T04:21:55.386Z,100232.16
2018-09-18T04:24:24.349Z,100230.30
2018-09-18T04:26:53.287Z,100230.78
2018-09-18T04:29:22.243Z,100232.36
2018-09-18T04:31:51.172Z,100227.61
2018-09-18T04:34:20.221Z,100228.98
2018-09-18T04:36:49.217Z,100229.92
2018-09-18T04:39:18.164Z,100235.34
2018-09-18T04:41:47.082Z,100234.26
2018-09-18T04:44:16.195Z,100231.50
2018-09-18T04:46:45.104Z,100230.30
2018-09-18T04:49:14.074Z,100236.61
2018-09-18T04:51:43.053Z,100234.33
2018-09-18T04:54:12.000Z,100233.24
2018-09-18T04:56:40.916Z,100227.49
2018-09-18T04:59:09.892Z,100230.02
2018-09-18T05:01:39.199Z,100228.52
2018-09-18T05:04:08.410Z,100229.75
2018-09-18T05:06:37.380Z,100230.72
2018-09-18T05:09:08.433Z,100229.14
2018-09-18T05:11:37.342Z,100230.42
2018-09-18T05:14:06.379Z,100226.09
2018-09-18T05:16:35.407Z,100224.67
2018-09-18T05:19:04.390Z,100227.17
2018-09-18T05:21:33.326Z,100230.07
2018-09-18T05:24:02.496Z,100235.52
2018-09-18T05:26:31.467Z,100233.52
2018-09-18T05:29:00.383Z,100232.48
2018-09-18T05:31:29.360Z,100227.58
2018-09-18T05:33:58.286Z,100228.67
2018-09-18T05:36:27.199Z,100230.72
2018-09-18T05:38:56.119Z,100237.83
2018-09-18T05:41:25.574Z,100238.13
2018-09-18T05:43:54.490Z,100237.63
2018-09-18T05:46:23.626Z,100235.52
2018-09-18T05:48:52.604Z,100236.22
2018-09-18T05:51:21.804Z,100232.97
2018-09-18T05:53:50.705Z,100230.40
2018-09-18T05:56:19.652Z,100238.81
2018-09-18T05:58:48.578Z,100237.80
2018-09-18T06:01:17.835Z,100233.31
2018-09-18T06:03:46.737Z,100232.93
2018-09-18T06:06:15.632Z,100228.11
2018-09-18T06:08:44.564Z,100228.77
2018-09-18T06:11:13.496Z,100232.98
2018-09-18T06:13:42.428Z,100229.69
2018-09-18T06:16:11.561Z,100224.36
2018-09-18T06:18:40.539Z,100231.52
2018-09-18T06:21:09.748Z,100231.52
2018-09-18T06:23:38.806Z,100234.61
2018-09-18T06:26:07.761Z,100234.58
2018-09-18T06:28:36.636Z,100239.03
2018-09-18T06:31:05.813Z,100226.77
2018-09-18T06:33:34.743Z,100240.95
2018-09-18T06:36:03.669Z,100235.19
2018-09-18T06:38:32.605Z,100239.88
2018-09-18T06:41:01.655Z,100234.71
2018-09-18T06:43:30.574Z,100233.25
2018-09-18T06:45:59.494Z,100237.42
2018-09-18T06:48:28.433Z,100230.79
2018-09-18T06:50:57.431Z,100234.63
2018-09-18T06:53:26.658Z,100233.59
2018-09-18T06:55:55.626Z,100234.33
2018-09-18T06:58:24.606Z,100230.41
2018-09-18T07:00:53.545Z,100236.28
2018-09-18T07:03:22.859Z,100228.94
2018-09-18T07:05:51.789Z,100234.67
2018-09-18T07:08:20.746Z,100231.95
2018-09-18T07:10:49.828Z,100230.73
2018-09-18T07:13:19.067Z,100224.27
2018-09-18T07:15:47.993Z,100227.56
2018-09-18T07:18:16.951Z,100224.55
2018-09-18T07:20:46.743Z,100227.44
2018-09-18T07:23:15.956Z,100218.93
2018-09-18T07:25:44.895Z,100215.42
2018-09-18T07:28:14.908Z,100206.98
2018-09-18T07:30:44.000Z,100223.23
2018-09-18T07:33:13.264Z,100217.94
2018-09-18T07:35:42.288Z,100212.51
2018-09-18T07:38:11.281Z,100208.98
2018-09-18T07:40:40.354Z,100208.33
2018-09-18T07:43:09.614Z,100208.87
2018-09-18T07:45:38.550Z,100201.77
2018-09-18T07:48:07.469Z,100203.91
2018-09-18T07:50:36.593Z,100201.95
2018-09-18T07:53:05.876Z,100200.57
2018-09-18T07:55:34.883Z,100204.80
2018-09-18T07:58:03.813Z,100206.98
2018-09-18T08:00:32.736Z,100202.75
2018-09-18T08:03:01.708Z,100203.80
2018-09-18T08:05:30.633Z,100200.65
2018-09-18T08:07:59.562Z,100206.69
2018-09-18T08:10:28.489Z,100206.36
2018-09-18T08:12:57.447Z,100204.91
2018-09-18T08:15:30.632Z,100201.91
2018-09-18T08:17:59.564Z,100202.05
2018-09-18T08:20:28.480Z,100202.45
2018-09-18T08:22:57.400Z,100199.38
2018-09-18T08:25:26.352Z,100215.78
2018-09-18T08:27:55.272Z,100198.06
2018-09-18T08:30:24.197Z,100189.11
2018-09-18T08:32:53.133Z,100195.96
2018-09-18T08:35:22.051Z,100205.63
2018-09-18T08:37:50.975Z,100196.69
2018-09-18T08:40:19.892Z,100184.87
2018-09-18T08:42:48.922Z,100184.28
2018-09-18T08:45:17.886Z,100176.98
2018-09-18T08:47:46.883Z,100178.31
2018-09-18T08:50:15.841Z,100187.42
2018-09-18T08:52:44.774Z,100192.72
2018-09-18T08:55:13.682Z,100189.23
2018-09-18T08:57:42.603Z,100189.39
2018-09-18T09:00:11.614Z,100181.75
2018-09-18T09:02:40.520Z,100173.45
2018-09-18T09:05:09.555Z,100174.23
2018-09-18T09:07:38.552Z,100167.81
2018-09-18T09:10:07.462Z,100165.16
2018-09-18T09:12:36.376Z,100163.39
2018-09-18T09:15:05.306Z,100150.63
2018-09-18T09:17:34.182Z,100163.82
2018-09-18T09:20:03.504Z,100160.88
2018-09-18T09:22:32.536Z,100158.66
2018-09-18T09:25:01.525Z,100152.58
2018-09-18T09:27:30.508Z,100153.30
2018-09-18T09:29:59.813Z,100155.52
2018-09-18T09:32:28.955Z,100153.06
2018-09-18T09:34:58.127Z,100147.69
2018-09-18T09:37:27.044Z,100143.45
2018-09-18T09:39:55.965Z,100142.02
2018-09-18T09:42:24.922Z,100139.86
2018-09-18T09:44:53.855Z,100131.73
2018-09-18T09:47:22.782Z,100137.55
2018-09-18T09:49:52.348Z,100137.55
2018-09-18T09:52:21.500Z,100134.57
2018-09-18T09:54:50.415Z,100127.48
2018-09-18T09:57:19.349Z,100124.61
2018-09-18T09:59:48.317Z,100121.35
2018-09-18T10:02:18.642Z,100116.43
2018-09-18T10:04:47.597Z,100114.75
2018-09-18T10:07:16.508Z,100109.55
2018-09-18T10:09:45.411Z,100105.25
2018-09-18T10:12:14.340Z,100107.79
2018-09-18T10:14:43.253Z,100097.75
2018-09-18T10:17:12.165Z,100093.03
2018-09-18T10:19:41.076Z,100090.25
2018-09-18T10:22:09.999Z,100084.45
2018-09-18T10:24:38.911Z,100082.62
2018-09-18T10:27:07.903Z,100082.09
2018-09-18T10:29:36.766Z,100082.53
2018-09-18T10:32:05.806Z,100085.91
2018-09-18T10:34:34.703Z,100082.91
2018-09-18T10:37:03.642Z,100082.63
2018-09-18T10:39:32.680Z,100074.69
2018-09-18T10:42:01.655Z,100074.51
2018-09-18T10:44:30.493Z,100075.09
2018-09-18T10:46:59.520Z,100071.59
2018-09-18T10:49:28.879Z,100067.48
2018-09-18T10:51:57.719Z,100072.72
2018-09-18T10:54:26.637Z,100065.13
2018-09-18T10:56:55.567Z,100068.42
2018-09-18T10:59:24.535Z,100062.92
2018-09-18T11:01:53.774Z,100056.38
2018-09-18T11:04:22.785Z,100058.10
2018-09-18T11:06:51.785Z,100061.72
2018-09-18T11:09:20.759Z,100059.98
2018-09-18T11:11:49.733Z,100057.65
2018-09-18T11:14:18.617Z,100052.61
2018-09-18T11:16:47.430Z,100053.69
2018-09-18T11:19:16.487Z,100050.50
2018-09-18T11:21:45.466Z,100044.23
2018-09-18T11:24:14.357Z,100033.84
2018-09-18T11:26:43.292Z,100036.02
2018-09-18T11:29:12.202Z,100027.89
2018-09-18T11:31:41.203Z,100036.61
2018-09-18T11:34:10.147Z,100036.06
2018-09-18T11:36:39.069Z,100031.30
2018-09-18T11:39:08.044Z,100017.91
2018-09-18T11:41:36.973Z,100012.68
2018-09-18T11:44:05.919Z,100013.52
2018-09-18T11:46:34.890Z,100011.95
2018-09-18T11:49:03.779Z,100021.38
2018-09-18T11:51:32.722Z,100023.23
2018-09-18T11:54:01.697Z,100020.17
2018-09-18T11:56:30.680Z,100003.08
2018-09-18T11:58:59.569Z,100004.97
2018-09-18T12:01:28.560Z,100001.71
2018-09-18T12:03:57.456Z,99998.87
2018-09-18T12:06:26.380Z,99996.13
2018-09-18T12:08:55.292Z,99993.74
2018-09-18T12:11:24.189Z,99985.37
2018-09-18T12:13:53.096Z,99986.33
2018-09-18T12:16:22.011Z,99979.69
2018-09-18T12:18:50.942Z,99981.09
2018-09-18T12:21:19.836Z,99985.86
2018-09-18T12:23:48.723Z,99975.77
2018-09-18T12:26:17.630Z,99968.76
2018-09-18T12:28:46.549Z,99972.30
2018-09-18T12:31:15.500Z,99965.36
2018-09-18T12:33:44.437Z,99963.05
2018-09-18T12:36:13.361Z,99961.64
2018-09-18T12:38:42.313Z,99966.27
2018-09-18T12:41:11.270Z,99964.69
2018-09-18T12:43:40.243Z,99958.29
2018-09-18T12:46:09.168Z,99951.61
2018-09-18T12:48:38.129Z,99949.44
2018-09-18T12:51:07.015Z,99949.43
2018-09-18T12:53:35.982Z,99939.58
2018-09-18T12:56:04.924Z,99942.52
2018-09-18T12:58:33.803Z,99935.39
2018-09-18T13:01:02.665Z,99930.73
2018-09-18T13:03:31.569Z,99936.38
2018-09-18T13:06:00.715Z,99936.03
2018-09-18T13:08:29.956Z,99931.21
2018-09-18T13:10:58.874Z,99932.13
2018-09-18T13:13:27.789Z,99931.28
2018-09-18T13:15:56.711Z,99927.28
2018-09-18T13:18:25.691Z,99921.77
2018-09-18T13:20:54.636Z,99920.00
2018-09-18T13:23:23.526Z,99918.92
2018-09-18T13:25:52.446Z,99913.30
2018-09-18T13:28:21.357Z,99913.30
2018-09-18T13:30:50.274Z,99916.47
2018-09-18T13:33:19.188Z,99914.98
2018-09-18T13:35:48.095Z,99912.13
2018-09-18T13:38:17.044Z,99909.42
2018-09-18T13:40:45.970Z,99910.33
2018-09-18T13:43:14.869Z,99914.90
2018-09-18T13:45:43.780Z,99907.06
2018-09-18T13:48:12.703Z,99904.91
2018-09-18T13:50:41.625Z,99907.29
2018-09-18T13:53:10.574Z,99904.48
2018-09-18T13:55:41.023Z,99899.19
2018-09-18T13:58:09.906Z,99901.86
2018-09-18T14:00:38.863Z,99889.11
2018-09-18T14:03:07.770Z,99890.18
2018-09-18T14:05:36.745Z,99889.75
2018-09-18T14:08:05.701Z,99891.28
2018-09-18T14:10:34.571Z,99896.41
2018-09-18T14:13:03.518Z,99887.22
2018-09-18T14:15:32.490Z,99889.27
2018-09-18T14:18:01.446Z,99888.35
2018-09-18T14:20:30.386Z,99882.15
2018-09-18T14:22:59.434Z,99874.52
2018-09-18T14:25:28.947Z,99880.91
2018-09-18T14:27:57.877Z,99873.77
2018-09-18T14:30:26.834Z,99872.16
2018-09-18T14:32:55.918Z,99874.97
2018-09-18T14:35:24.822Z,99869.88
2018-09-18T14:37:54.041Z,99866.45
2018-09-18T14:40:22.995Z,99866.95
2018-09-18T14:42:51.887Z,99868.98
2018-09-18T14:45:20.954Z,99867.53
2018-09-18T14:47:56.530Z,99869.44
2018-09-18T14:50:25.430Z,99855.61
2018-09-18T14:52:54.346Z,99858.58
2018-09-18T14:55:23.295Z,99854.21
2018-09-18T14:57:52.249Z,99855.41
2018-09-18T15:00:21.197Z,99847.22
2018-09-18T15:02:50.129Z,99845.95
2018-09-18T15:05:19.090Z,99854.89
2018-09-18T15:07:47.984Z,99855.97
2018-09-18T15:10:16.935Z,99852.77
2018-09-18T15:12:45.901Z,99853.79
2018-09-18T15:15:14.852Z,99852.47
2018-09-18T15:17:43.779Z,99849.92
2018-09-18T15:20:12.764Z,99857.25
2018-09-18T15:22:41.826Z,99867.23
2018-09-18T15:25:10.743Z,99865.23
2018-09-18T15:27:39.778Z,99872.42
2018-09-18T15:30:08.622Z,99873.52
2018-09-18T15:32:37.540Z,99871.02
2018-09-18T15:35:06.470Z,99880.16
2018-09-18T15:37:35.488Z,99871.95
2018-09-18T15:40:04.548Z,99875.01
2018-09-18T15:42:33.496Z,99878.16
2018-09-18T15:45:02.482Z,99879.05
2018-09-18T15:47:32.507Z,99876.44
2018-09-18T15:50:01.513Z,99874.70
2018-09-18T15:52:30.600Z,99865.68
2018-09-18T15:54:59.677Z,99868.80
2018-09-18T15:57:28.862Z,99859.54
2018-09-18T15:59:57.842Z,99862.14
2018-09-18T16:02:26.774Z,99861.02
2018-09-18T16:04:55.773Z,99862.92
2018-09-18T16:07:24.707Z,99863.39
2018-09-18T16:09:53.814Z,99857.48
2018-09-18T16:12:22.706Z,99863.31
2018-09-18T16:14:51.816Z,99858.70
2018-09-18T16:17:20.700Z,99859.80
2018-09-18T16:19:49.597Z,99856.86
2018-09-18T16:22:18.564Z,99855.16
2018-09-18T16:24:47.477Z,99855.64
2018-09-18T16:27:16.364Z,99852.50
2018-09-18T16:29:45.347Z,99856.83
2018-09-18T16:32:14.347Z,99857.39
2018-09-18T16:34:43.255Z,99865.72
2018-09-18T16:37:12.249Z,99862.84
2018-09-18T16:39:41.181Z,99860.56
2018-09-18T16:42:10.135Z,99860.16
2018-09-18T16:44:39.022Z,99864.09
2018-09-18T16:47:08.002Z,99863.37
2018-09-18T16:49:36.945Z,99865.50
2018-09-18T16:54:35.661Z,99858.13
2018-09-18T16:57:04.466Z,99857.76
2018-09-18T16:59:33.382Z,99852.89
2018-09-18T17:02:02.327Z,99860.77
2018-09-18T17:04:31.386Z,99860.12
2018-09-18T17:07:00.291Z,99859.84
2018-09-18T17:09:29.192Z,99865.64
2018-09-18T17:11:58.113Z,99868.64
2018-09-18T17:14:27.113Z,99872.48
2018-09-18T17:16:56.026Z,99866.98
2018-09-18T17:19:25.046Z,99867.03
2018-09-18T17:21:54.334Z,99871.56
2018-09-18T17:24:23.571Z,99870.22
2018-09-18T17:26:52.524Z,99871.77
2018-09-18T17:29:21.452Z,99871.19
2018-09-18T17:31:50.410Z,99879.62
2018-09-18T17:34:23.748Z,99887.64
2018-09-18T17:36:52.670Z,99890.57
2018-09-18T17:39:21.586Z,99895.23
2018-09-18T17:41:50.662Z,99901.09
2018-09-18T17:44:19.695Z,99903.98
2018-09-18T17:46:48.597Z,99905.36
2018-09-18T17:49:17.565Z,99904.30
2018-09-18T17:51:46.474Z,99903.49
2018-09-18T17:54:15.382Z,99901.49
2018-09-18T17:56:44.377Z,99909.94
2018-09-18T17:59:13.275Z,99915.55
2018-09-18T18:01:42.289Z,99909.20
2018-09-18T18:04:11.214Z,99926.03
2018-09-18T18:06:40.182Z,99926.58
2018-09-18T18:09:10.013Z,99932.77
2018-09-18T18:11:39.240Z,99931.82
2018-09-18T18:14:08.117Z,99930.64
2018-09-18T18:16:37.105Z,99928.89
2018-09-18T18:19:06.082Z,99927.55
2018-09-18T18:21:35.015Z,99934.86
2018-09-18T18:24:03.961Z,99933.94
2018-09-18T18:26:33.089Z,99937.94
2018-09-18T18:29:01.969Z,99937.27
2018-09-18T18:31:30.884Z,99941.55
2018-09-18T18:33:59.856Z,99950.69
2018-09-18T18:36:28.779Z,99940.64
2018-09-18T18:38:57.861Z,99948.00
2018-09-18T18:41:26.937Z,99951.59
2018-09-18T18:44:02.816Z,99951.28
2018-09-18T18:46:31.763Z,99956.19
2018-09-18T18:49:16.839Z,99957.20
2018-09-18T18:51:46.856Z,99959.52
2018-09-18T18:54:15.787Z,99963.05
2018-09-18T18:56:44.805Z,99958.39
2018-09-18T18:59:14.791Z,99963.08
2018-09-18T19:01:44.764Z,99965.39
2018-09-18T19:04:13.700Z,99963.80
2018-09-18T19:06:42.677Z,99963.56
2018-09-18T19:09:11.646Z,99964.50
2018-09-18T19:11:40.585Z,99971.86
2018-09-18T19:14:10.772Z,99977.22
2018-09-18T19:16:39.778Z,99970.30
2018-09-18T19:19:08.757Z,99976.86
2018-09-18T19:21:37.687Z,99974.28
2018-09-18T19:24:06.626Z,99974.55
2018-09-18T19:26:35.609Z,99976.63
2018-09-18T19:29:04.610Z,99974.52
2018-09-18T19:31:33.522Z,99977.33
2018-09-18T19:34:02.479Z,99980.38
2018-09-18T19:36:31.455Z,99987.45
2018-09-18T19:39:00.496Z,99989.92
2018-09-18T19:41:29.381Z,99993.28
2018-09-18T19:43:58.389Z,99992.41
2018-09-18T19:46:27.341Z,99993.50
2018-09-18T19:48:57.036Z,99990.16
2018-09-18T19:51:25.981Z,99987.33
2018-09-18T19:53:54.897Z,99988.14
2018-09-18T19:56:23.824Z,99989.33
2018-09-18T19:58:52.978Z,99985.91
2018-09-18T20:01:22.006Z,99992.73
2018-09-18T20:03:50.945Z,100001.48
2018-09-18T20:06:19.891Z,99998.70
2018-09-18T20:08:48.801Z,100009.05
2018-09-18T20:11:17.793Z,100004.16
2018-09-18T20:13:46.715Z,100002.28
2018-09-18T20:16:15.732Z,99995.89
2018-09-18T20:18:44.718Z,100000.19
2018-09-18T20:21:13.637Z,100000.41
2018-09-18T20:23:42.724Z,99999.09
2018-09-18T20:26:11.665Z,100003.72
2018-09-18T20:28:40.633Z,100006.64
2018-09-18T20:31:09.552Z,100004.40
2018-09-18T20:33:38.592Z,100001.38
2018-09-18T20:36:07.837Z,100009.07
2018-09-18T20:38:36.839Z,100011.74
2018-09-18T20:41:06.119Z,100012.63
2018-09-18T20:43:35.166Z,100017.70
2018-09-18T20:46:04.107Z,100015.26
2018-09-18T20:48:33.065Z,100015.26
2018-09-18T20:51:02.006Z,100014.20
2018-09-18T20:53:30.948Z,100015.02
2018-09-18T20:55:59.971Z,100018.80
2018-09-18T20:58:28.915Z,100021.35
2018-09-18T21:00:57.885Z,100019.44
2018-09-18T21:03:26.826Z,100024.84
2018-09-18T21:05:55.760Z,100023.80
2018-09-18T21:08:24.741Z,100022.25
2018-09-18T21:10:53.646Z,100016.60
2018-09-18T21:13:22.609Z,100020.89
2018-09-18T21:15:51.534Z,100018.38
2018-09-18T21:18:20.456Z,100022.77
2018-09-18T21:20:49.406Z,100024.91
2018-09-18T21:23:18.411Z,100023.33
2018-09-18T21:26:03.902Z,100027.13
2018-09-18T21:28:32.952Z,100029.20
2018-09-18T21:31:02.100Z,100025.69
2018-09-18T21:33:31.327Z,100028.48
2018-09-18T21:36:00.625Z,100025.42
2018-09-18T21:38:30.011Z,100019.14
2018-09-18T21:40:59.007Z,100027.26
2018-09-18T21:43:28.758Z,100023.17
2018-09-18T21:45:57.685Z,100021.62
2018-09-18T21:48:26.615Z,100023.25
2018-09-18T21:50:55.642Z,100027.83
2018-09-18T21:53:24.625Z,100029.47
2018-09-18T21:55:53.576Z,100031.53
2018-09-18T21:58:26.587Z,100036.94
2018-09-18T22:00:55.547Z,100029.30
2018-09-18T22:03:31.109Z,100033.94
2018-09-18T22:06:00.150Z,100034.27
2018-09-18T22:08:29.061Z,100031.09
2018-09-18T22:10:57.985Z,100036.17
2018-09-18T22:13:26.892Z,100035.06
2018-09-18T22:15:55.811Z,100035.06
2018-09-18T22:18:24.722Z,100027.79
2018-09-18T22:20:53.654Z,100026.19
2018-09-18T22:23:22.622Z,100038.68
2018-09-18T22:25:51.538Z,100030.06
2018-09-18T22:28:20.471Z,100038.23
2018-09-18T22:30:49.452Z,100036.80
2018-09-18T22:33:18.355Z,100032.25
2018-09-18T22:35:47.249Z,100037.20
2018-09-18T22:38:16.243Z,100034.78
2018-09-18T22:40:45.178Z,100035.05
2018-09-18T22:43:14.109Z,100041.19
2018-09-18T22:45:43.015Z,100042.43
2018-09-18T22:48:11.946Z,100041.52
2018-09-18T22:50:40.869Z,100036.45
2018-09-18T22:53:09.830Z,100037.16
2018-09-18T22:55:38.729Z,100036.00
2018-09-18T22:58:07.618Z,100038.97
2018-09-18T23:00:36.560Z,100040.12
2018-09-18T23:03:05.546Z,100037.85
2018-09-18T23:05:34.443Z,100042.30
2018-09-18T23:08:03.385Z,100040.45
2018-09-18T23:10:32.276Z,100036.61
2018-09-18T23:13:01.178Z,100043.20
2018-09-18T23:15:30.140Z,100039.24
2018-09-18T23:17:59.045Z,100042.95
2018-09-18T23:20:27.954Z,100039.45
2018-09-18T23:22:56.946Z,100039.23
2018-09-18T23:25:25.855Z,100033.91
2018-09-18T23:27:54.819Z,100039.22
2018-09-18T23:30:23.746Z,100028.70
2018-09-18T23:32:52.742Z,100036.86
2018-09-18T23:35:21.673Z,100042.08
2018-09-18T23:37:54.412Z,100044.23
2018-09-18T23:40:23.371Z,100037.75
2018-09-18T23:42:52.344Z,100037.42
2018-09-18T23:45:21.252Z,100040.92
2018-09-18T23:47:50.193Z,100044.09
2018-09-18T23:50:19.142Z,100043.76
2018-09-18T23:52:48.051Z,100047.73
2018-09-18T23:55:16.963Z,100047.05
2018-09-18T23:57:45.884Z,100050.77
